AAL22 KMIA-KTPA
Flight info
| Callsign | AAL22 |
|---|---|
| Flight time | N/A |
| Altitude | 24000 |
| Route | BNGOS4 COREA BLFRG3 |
| Aircraft | B77W/H-SDE1E2E3FGHIJ2J3J4J5M1RWXY/LB1D1 |
Departure
| Time | 2026-04-30 22:21 |
|---|---|
| Airport | Miami International Airport (KMIA) |
Arrival
| Time | N/A |
|---|---|
| Airport | Tampa International Airport (KTPA) |
| Time | Latitude | Longitude | Altitude | Speed | Heading |
|---|---|---|---|---|---|
| 2026-04-30 21:38 | 25.79780 | -80.28048 | 20 ft | 0 kts | 213° |
| 2026-04-30 22:06 | 25.79796 | -80.28037 | 30 ft | 4 kts | 213° |
| 2026-04-30 22:07 | 25.79818 | -80.28020 | 23 ft | 4 kts | 214° |
| 2026-04-30 22:07 | 25.79841 | -80.28003 | 23 ft | 4 kts | 214° |
| 2026-04-30 22:07 | 25.79859 | -80.27989 | 24 ft | 4 kts | 217° |
| 2026-04-30 22:07 | 25.79876 | -80.27968 | 24 ft | 4 kts | 252° |
| 2026-04-30 22:08 | 25.79878 | -80.27940 | 22 ft | 4 kts | 275° |
| 2026-04-30 22:08 | 25.79878 | -80.27936 | 22 ft | 0 kts | 275° |
| 2026-04-30 22:12 | 25.79878 | -80.27940 | 20 ft | 2 kts | 276° |
| 2026-04-30 22:12 | 25.79893 | -80.27990 | 22 ft | 10 kts | 295° |
| 2026-04-30 22:12 | 25.79931 | -80.28066 | 20 ft | 14 kts | 301° |
| 2026-04-30 22:12 | 25.80005 | -80.28155 | 19 ft | 17 kts | 324° |
| 2026-04-30 22:13 | 25.80040 | -80.28259 | 20 ft | 15 kts | 266° |
| 2026-04-30 22:13 | 25.80034 | -80.28372 | 19 ft | 15 kts | 267° |
| 2026-04-30 22:13 | 25.80029 | -80.28488 | 20 ft | 17 kts | 267° |
| 2026-04-30 22:13 | 25.80024 | -80.28616 | 23 ft | 19 kts | 268° |
| 2026-04-30 22:14 | 25.80017 | -80.28787 | 21 ft | 23 kts | 267° |
| 2026-04-30 22:14 | 25.80009 | -80.28968 | 24 ft | 23 kts | 268° |
| 2026-04-30 22:14 | 25.80002 | -80.29148 | 21 ft | 23 kts | 267° |
| 2026-04-30 22:14 | 25.79995 | -80.29328 | 20 ft | 23 kts | 268° |
| 2026-04-30 22:15 | 25.79987 | -80.29509 | 19 ft | 23 kts | 267° |
| 2026-04-30 22:15 | 25.79979 | -80.29677 | 19 ft | 21 kts | 268° |
| 2026-04-30 22:15 | 25.79976 | -80.29784 | 19 ft | 11 kts | 268° |
| 2026-04-30 22:15 | 25.79972 | -80.29869 | 19 ft | 10 kts | 266° |
| 2026-04-30 22:16 | 25.79968 | -80.29924 | 18 ft | 2 kts | 266° |
| 2026-04-30 22:16 | 25.79968 | -80.29935 | 18 ft | 2 kts | 266° |
| 2026-04-30 22:17 | 25.79967 | -80.29957 | 18 ft | 0 kts | 268° |
| 2026-04-30 22:17 | 25.79966 | -80.29996 | 18 ft | 9 kts | 271° |
| 2026-04-30 22:18 | 25.79977 | -80.30064 | 18 ft | 11 kts | 285° |
| 2026-04-30 22:18 | 25.80010 | -80.30119 | 19 ft | 0 kts | 336° |
| 2026-04-30 22:19 | 25.80011 | -80.30119 | 19 ft | 0 kts | 336° |
| 2026-04-30 22:19 | 25.80013 | -80.30120 | 19 ft | 4 kts | 336° |
| 2026-04-30 22:20 | 25.80055 | -80.30115 | 19 ft | 9 kts | 36° |
| 2026-04-30 22:20 | 25.80088 | -80.29717 | 19 ft | 83 kts | 88° |
| 2026-04-30 22:20 | 25.80125 | -80.28780 | 26 ft | 157 kts | 87° |
| 2026-04-30 22:21 | 25.80128 | -80.27404 | 392 ft | 185 kts | 94° |
| 2026-04-30 22:21 | 25.80106 | -80.25967 | 1299 ft | 188 kts | 95° |
| 2026-04-30 22:21 | 25.80087 | -80.24523 | 2156 ft | 187 kts | 92° |
| 2026-04-30 22:21 | 25.80138 | -80.23019 | 2626 ft | 210 kts | 86° |
| 2026-04-30 22:22 | 25.80302 | -80.21289 | 2873 ft | 240 kts | 86° |
| 2026-04-30 22:22 | 25.80463 | -80.19336 | 3095 ft | 269 kts | 81° |
| 2026-04-30 22:22 | 25.81196 | -80.17414 | 3758 ft | 279 kts | 49° |
| 2026-04-30 22:22 | 25.82736 | -80.16166 | 4714 ft | 272 kts | 15° |
| 2026-04-30 22:23 | 25.84570 | -80.15863 | 5689 ft | 266 kts | 358° |
| 2026-04-30 22:23 | 25.86445 | -80.15811 | 6550 ft | 270 kts | 359° |
| 2026-04-30 22:23 | 25.88336 | -80.15748 | 7455 ft | 274 kts | 359° |
| 2026-04-30 22:23 | 25.90242 | -80.15904 | 8129 ft | 278 kts | 344° |
| 2026-04-30 22:24 | 25.92096 | -80.16535 | 9009 ft | 277 kts | 339° |
| 2026-04-30 22:24 | 25.93920 | -80.17224 | 9771 ft | 280 kts | 339° |
| 2026-04-30 22:24 | 25.95798 | -80.17917 | 10451 ft | 291 kts | 339° |
| 2026-04-30 22:24 | 25.97742 | -80.18765 | 10696 ft | 312 kts | 326° |
| 2026-04-30 22:25 | 25.99345 | -80.20495 | 10914 ft | 337 kts | 302° |
| 2026-04-30 22:25 | 26.00366 | -80.22921 | 11168 ft | 356 kts | 291° |
| 2026-04-30 22:25 | 26.01279 | -80.25526 | 11882 ft | 368 kts | 291° |
| 2026-04-30 22:25 | 26.02215 | -80.28199 | 12844 ft | 373 kts | 291° |